Menominee, MI (49858)

12:21 PM CDT on April 27, 2017 (GMT -0500)
Tyco Fire Protection | | Change Station

Elev 617 ft 45.08 °N, 87.64 °W | Updated 52 seconds ago

Light Rain
Light Rain Mist
39.7 °F
Feels Like 35 °F
N
6.0
Wind Variable Wind from West
Gusts 6.0 mph

Today
High -- | Low -- °F
--% Chance of Precip.
Yesterday
High -- | Low -- °F
Precip. -- in
Pressure 29.36 in
Visibility 6.0 miles
Clouds Mostly Cloudy 700 ft
Overcast 1600 ft
Windchill 35 °F
Dew Point 37 °F
Humidity 91%
Rainfall 0.56 in
Snow Depth Not available.
5:45 AM 7:51 PM
New Moon, 2% visible
SPECI KMNM 271719Z AUTO 30005KT 6SM -RA BR BKN007 OVC016 04/02 A2936 RMK AO2 CIG 005V010 P0001 TSNO $
Pressure 29.36 in
Visibility 6.0 miles
Clouds Mostly Cloudy 700 ft
Overcast 1600 ft
Windchill 35 °F
Dew Point 37 °F
Humidity 91%
Rainfall 0.56 in
Snow Depth Not available.
5:45 AM 7:51 PM
New Moon, 2% visible
SPECI KMNM 271719Z AUTO 30005KT 6SM -RA BR BKN007 OVC016 04/02 A2936 RMK AO2 CIG 005V010 P0001 TSNO $

Get Severe Weather Alerts

Thanks for signing up!

Be on the lookout for a verification email in your inbox.

You'll start receiving the daily forecast at 8 AM.

×

10-Day Weather Forecast

Almanac

Astronomy

Apr. 27, 2017 Rise Set
Actual Time
Civil Twilight
Nautical Twilight
Astronomical Twilight
Moon
Length of Visible Light
Length of Day
Tomorrow will be .
, % of the Moon is Illuminated

Today's Extremes

State Highs State Lows

Community

WunderPhotos

WunderBlog® & News

Nearby

Air Quality

  Air Quality AQ Index Pollutant
Not available.

Snow Depth

Station Depth Elevation

Earthquake Activity

City Distance Mag. Time & Date
Minimum magnitude displayed is 2.5.

Coastal Water Temperatures

Place Temperature

Stations

Nearby Weather Stations

Station Location Temp. Windchill Dew Point Humidity Wind Precip. Elev Updated Type
                   

Watches & Warnings

There are currently no watches in effect.